createdAt,value
2023-03-28T00:03:06.470Z,80.17
2023-03-28T00:08:09.275Z,80.02
2023-03-28T00:13:14.476Z,79.77
2023-03-28T00:18:17.073Z,79.64
2023-03-28T00:23:19.598Z,80.00
2023-03-28T00:28:22.220Z,78.59
2023-03-28T00:33:24.847Z,78.63
2023-03-28T00:38:27.757Z,78.48
2023-03-28T00:43:56.858Z,78.47
2023-03-28T00:49:04.608Z,78.42
2023-03-28T00:54:13.257Z,79.23
2023-03-28T00:59:21.613Z,78.75
2023-03-28T01:04:27.411Z,78.21
2023-03-28T01:09:31.534Z,78.91
2023-03-28T01:14:37.940Z,78.73
2023-03-28T01:19:50.612Z,78.80
2023-03-28T01:24:53.322Z,79.27
2023-03-28T01:30:14.417Z,78.77
2023-03-28T01:36:10.832Z,79.73
2023-03-28T01:41:19.423Z,80.81
2023-03-28T01:46:36.877Z,81.69
2023-03-28T01:52:04.402Z,83.79
2023-03-28T01:57:19.937Z,84.12
2023-03-28T02:02:33.311Z,85.70
2023-03-28T02:07:46.477Z,84.79
2023-03-28T02:12:57.012Z,84.95
2023-03-28T02:18:34.973Z,85.67
2023-03-28T02:23:56.765Z,84.82
2023-03-28T02:29:19.452Z,85.22
2023-03-28T02:34:45.370Z,84.94
2023-03-28T02:40:13.906Z,85.45
2023-03-28T02:45:30.352Z,83.48
2023-03-28T02:51:07.193Z,84.30
2023-03-28T02:56:44.815Z,84.41
2023-03-28T03:02:02.001Z,83.65
2023-03-28T03:07:04.575Z,84.56
2023-03-28T03:12:08.484Z,85.54
2023-03-28T03:17:11.337Z,84.88
2023-03-28T03:22:21.065Z,84.55
2023-03-28T03:27:26.786Z,85.09
2023-03-28T03:32:29.488Z,83.77
2023-03-28T03:37:38.912Z,81.64
2023-03-28T03:42:41.729Z,79.72
2023-03-28T03:47:44.402Z,79.33
2023-03-28T03:52:46.963Z,80.45
2023-03-28T03:57:49.493Z,80.47
2023-03-28T04:02:52.598Z,80.20
2023-03-28T04:08:01.794Z,80.72
2023-03-28T04:13:10.091Z,80.69
2023-03-28T04:18:15.663Z,80.27
2023-03-28T04:23:26.060Z,80.75
2023-03-28T04:28:29.636Z,91.80
2023-03-28T04:33:36.676Z,83.21
2023-03-28T04:38:41.833Z,82.78
2023-03-28T04:44:08.551Z,90.00
2023-03-28T04:49:18.562Z,80.23
2023-03-28T04:54:21.556Z,82.02
2023-03-28T04:59:24.308Z,91.70
2023-03-28T05:04:28.635Z,80.95
2023-03-28T05:09:37.862Z,80.87
2023-03-28T05:14:40.793Z,83.01
2023-03-28T05:19:49.825Z,81.18
2023-03-28T05:24:55.573Z,78.90
2023-03-28T05:29:58.137Z,77.51
2023-03-28T05:35:01.080Z,78.48
2023-03-28T05:40:10.866Z,75.38
2023-03-28T05:45:16.236Z,84.88
2023-03-28T05:50:39.147Z,80.33
2023-03-28T05:55:42.687Z,78.97
2023-03-28T06:00:45.143Z,86.21
2023-03-28T06:05:48.381Z,80.20
2023-03-28T06:11:02.642Z,81.27
2023-03-28T06:16:11.150Z,77.32
2023-03-28T06:21:13.692Z,83.86
2023-03-28T06:26:17.310Z,74.16
2023-03-28T06:31:20.069Z,77.29
2023-03-28T06:36:24.124Z,72.66
2023-03-28T06:41:27.091Z,70.50
2023-03-28T06:46:29.917Z,69.56
2023-03-28T06:51:32.894Z,63.59
2023-03-28T06:56:35.538Z,63.43
2023-03-28T07:01:38.194Z,61.40
2023-03-28T07:06:49.726Z,62.26
2023-03-28T07:11:52.425Z,54.72
2023-03-28T07:16:56.261Z,57.54
2023-03-28T07:21:58.938Z,60.23
2023-03-28T07:32:11.032Z,59.08
2023-03-28T07:37:13.644Z,52.65
2023-03-28T07:42:29.741Z,50.57
2023-03-28T07:47:32.375Z,50.86
2023-03-28T07:52:35.165Z,54.22
2023-03-28T07:57:37.711Z,54.16
2023-03-28T08:03:00.612Z,50.31
2023-03-28T08:08:05.465Z,48.77
2023-03-28T08:13:08.717Z,47.57
2023-03-28T08:18:13.139Z,46.88
2023-03-28T08:23:16.996Z,44.90
2023-03-28T08:28:19.580Z,46.21
2023-03-28T08:33:22.260Z,39.52
2023-03-28T08:38:25.205Z,38.21
2023-03-28T08:43:48.503Z,42.60
2023-03-28T08:48:55.219Z,36.85
2023-03-28T08:54:02.506Z,40.15
2023-03-28T08:59:11.335Z,34.45
2023-03-28T09:04:26.249Z,37.31
2023-03-28T09:09:44.358Z,31.73
2023-03-28T09:15:12.578Z,37.45
2023-03-28T09:20:18.354Z,39.80
2023-03-28T09:26:00.002Z,36.18
2023-03-28T09:31:10.041Z,33.33
2023-03-28T09:36:15.698Z,34.19
2023-03-28T09:41:44.255Z,37.43
2023-03-28T09:47:14.835Z,36.70
2023-03-28T09:52:24.280Z,42.66
2023-03-28T09:57:27.276Z,33.33
2023-03-28T10:02:34.024Z,32.01
2023-03-28T10:07:46.328Z,32.59
2023-03-28T10:13:05.037Z,35.94
2023-03-28T10:18:25.449Z,35.23
2023-03-28T10:23:52.438Z,37.23
2023-03-28T10:28:58.767Z,34.17
2023-03-28T10:34:04.868Z,36.32
2023-03-28T10:39:33.461Z,34.63
2023-03-28T10:45:02.720Z,34.09
2023-03-28T10:50:38.127Z,38.12
2023-03-28T10:56:01.645Z,30.87
2023-03-28T11:01:25.324Z,33.39
2023-03-28T11:06:51.495Z,30.41
2023-03-28T11:12:28.325Z,25.86
2023-03-28T11:18:00.054Z,24.67
2023-03-28T11:23:26.766Z,23.21
2023-03-28T11:29:07.370Z,24.75
2023-03-28T11:34:28.856Z,29.65
2023-03-28T11:39:59.718Z,25.21
2023-03-28T11:45:12.924Z,28.98
2023-03-28T11:50:18.563Z,29.71
2023-03-28T11:56:07.013Z,35.45
2023-03-28T12:01:33.598Z,31.44
2023-03-28T12:07:09.144Z,29.63
2023-03-28T12:12:36.591Z,29.16
2023-03-28T12:17:49.901Z,31.90
2023-03-28T12:23:01.799Z,33.20
2023-03-28T12:28:26.624Z,32.23
2023-03-28T12:34:08.149Z,32.47
2023-03-28T12:39:59.105Z,33.45
2023-03-28T12:45:14.725Z,33.55
2023-03-28T12:50:58.110Z,33.69
2023-03-28T12:56:03.804Z,33.67
2023-03-28T13:01:16.353Z,32.64
2023-03-28T13:06:58.643Z,32.09
2023-03-28T13:12:20.316Z,31.55
2023-03-28T13:17:26.181Z,30.30
2023-03-28T13:22:30.741Z,28.82
2023-03-28T13:27:34.891Z,28.22
2023-03-28T13:37:42.674Z,26.78
2023-03-28T13:42:59.029Z,24.90
2023-03-28T13:48:12.685Z,24.92
2023-03-28T13:53:16.200Z,25.43
2023-03-28T13:58:19.457Z,24.36
2023-03-28T14:03:22.197Z,25.73
2023-03-28T14:08:26.025Z,23.91
2023-03-28T14:13:33.759Z,24.50
2023-03-28T14:18:40.875Z,25.21
2023-03-28T14:24:12.907Z,25.05
2023-03-28T14:29:18.087Z,26.34
2023-03-28T14:34:25.834Z,27.12
2023-03-28T14:39:30.769Z,27.61
2023-03-28T14:44:39.825Z,27.02
2023-03-28T14:49:42.545Z,25.02
2023-03-28T14:54:48.243Z,26.23
2023-03-28T14:59:52.624Z,26.20
2023-03-28T15:05:03.924Z,27.33
2023-03-28T15:10:11.354Z,27.83
2023-03-28T15:15:30.969Z,28.44
2023-03-28T15:20:37.103Z,29.95
2023-03-28T15:25:39.688Z,30.07
2023-03-28T15:30:44.470Z,30.31
2023-03-28T15:35:48.185Z,30.37
2023-03-28T15:40:59.635Z,31.49
2023-03-28T15:46:04.065Z,31.95
2023-03-28T15:51:13.165Z,32.01
2023-03-28T15:56:37.389Z,31.59
2023-03-28T16:01:40.820Z,32.87
2023-03-28T16:06:45.538Z,31.95
2023-03-28T16:11:59.810Z,33.75
2023-03-28T16:17:17.946Z,35.22
2023-03-28T16:22:31.490Z,35.13
2023-03-28T16:27:35.941Z,35.10
2023-03-28T16:32:40.034Z,35.45
2023-03-28T16:37:45.729Z,36.43
2023-03-28T16:42:48.468Z,36.63
2023-03-28T16:47:51.358Z,36.72
2023-03-28T16:52:54.043Z,36.51
2023-03-28T16:57:56.937Z,36.91
2023-03-28T17:03:07.963Z,40.67
2023-03-28T17:08:10.689Z,37.58
2023-03-28T17:13:13.252Z,37.89
2023-03-28T17:18:16.478Z,39.44
2023-03-28T17:23:19.156Z,38.52
2023-03-28T17:28:21.801Z,38.60
2023-03-28T17:33:24.531Z,39.49
2023-03-28T17:38:27.589Z,40.32
2023-03-28T17:43:30.133Z,40.72
2023-03-28T17:48:32.794Z,41.24
2023-03-28T17:53:35.503Z,41.65
2023-03-28T17:58:38.531Z,41.86
2023-03-28T18:03:41.830Z,42.03
2023-03-28T18:09:08.442Z,41.41
2023-03-28T18:14:11.449Z,42.22
2023-03-28T18:19:17.945Z,41.98
2023-03-28T18:24:21.479Z,42.32
2023-03-28T18:29:24.499Z,42.24
2023-03-28T18:34:27.458Z,43.02
2023-03-28T18:39:30.248Z,43.18
2023-03-28T18:44:35.852Z,43.29
2023-03-28T18:49:38.869Z,43.88
2023-03-28T18:54:46.174Z,43.99
2023-03-28T18:59:52.795Z,43.94
2023-03-28T19:04:55.788Z,43.93
2023-03-28T19:09:58.687Z,43.86
2023-03-28T19:15:01.326Z,43.70
2023-03-28T19:20:08.301Z,43.79
2023-03-28T19:25:11.271Z,43.89
2023-03-28T19:30:14.082Z,43.74
2023-03-28T19:35:16.793Z,44.28
2023-03-28T19:40:19.495Z,45.01
2023-03-28T19:45:22.115Z,44.70
2023-03-28T19:50:25.152Z,44.79
2023-03-28T19:55:27.910Z,43.87
2023-03-28T20:00:31.454Z,45.63
2023-03-28T20:05:33.999Z,43.33
2023-03-28T20:10:44.685Z,42.95
2023-03-28T20:15:47.878Z,43.49
2023-03-28T20:20:56.080Z,43.11
2023-03-28T20:26:01.674Z,43.27
2023-03-28T20:31:04.719Z,42.69
2023-03-28T20:36:08.264Z,42.96
2023-03-28T20:41:17.046Z,44.06
2023-03-28T20:46:20.027Z,44.42
2023-03-28T20:51:24.031Z,45.37
2023-03-28T20:56:31.246Z,44.85
2023-03-28T21:01:34.803Z,44.65
2023-03-28T21:06:38.512Z,44.86
2023-03-28T21:11:41.317Z,45.77
2023-03-28T21:16:43.997Z,45.57
2023-03-28T21:21:47.447Z,46.88
2023-03-28T21:26:50.466Z,47.12
2023-03-28T21:31:53.053Z,47.01
2023-03-28T21:36:56.092Z,47.51
2023-03-28T21:41:59.379Z,47.05
2023-03-28T21:47:01.978Z,47.31
2023-03-28T21:52:05.221Z,47.98
2023-03-28T21:57:07.801Z,47.60
2023-03-28T22:02:10.404Z,47.68
2023-03-28T22:07:12.977Z,48.14
2023-03-28T22:12:15.476Z,48.77
2023-03-28T22:17:18.005Z,49.51
2023-03-28T22:22:28.409Z,49.38
2023-03-28T22:27:31.832Z,50.74
2023-03-28T22:32:34.567Z,50.74
2023-03-28T22:37:37.740Z,50.61
2023-03-28T22:42:40.287Z,50.58
2023-03-28T22:47:43.059Z,56.24
2023-03-28T22:52:50.181Z,66.65
2023-03-28T22:57:53.460Z,71.20
2023-03-28T23:02:56.470Z,74.76
2023-03-28T23:08:00.211Z,76.89
2023-03-28T23:13:05.673Z,78.72
2023-03-28T23:18:08.652Z,80.33
2023-03-28T23:23:12.864Z,81.19
2023-03-28T23:28:17.284Z,83.48
2023-03-28T23:33:21.477Z,82.48
2023-03-28T23:38:24.051Z,86.01
2023-03-28T23:43:26.881Z,81.35
2023-03-28T23:48:29.517Z,80.39
2023-03-28T23:53:32.136Z,82.07
2023-03-28T23:58:35.445Z,81.80
